Impacts TAF Board
For situational awareness. Not to be used for flight planning purposes.
IDs:

KSEA - Seattle-Tacoma Intl, WA, US

Issued at 2103 UTC 08 Aug 2020
Updated at 2150 UTC 08 Aug 2020
Potential Impact None Slight Moderate High
Time2053Z 08/22Z 08/23Z 09/00Z 09/01Z 09/02Z 09/03Z 09/04Z 09/05Z 09/06Z 09/07Z 09/08Z 09/09Z 09/10Z>>
Type OBS PRVL PRVL PRVL PRVL PRVL PRVL PRVL PRVL PRVL PRVL PRVL PRVL PRVL
VIS 10 >6 >6 >6 >6 >6 >6 >6 >6 >6 >6 >6 >6 >6
CIG 36 30 30 40 40 40 40 40 40 -- -- -- -- --
Cover OVC OVC OVC BKN BKN BKN BKN BKN BKN FEW FEW FEW FEW FEW
FltCat VFR MVFR MVFR VFR VFR VFR VFR VFR VFR VFR VFR VFR VFR VFR
WX -- VCSH VCSH -- -- -- -- -- -- -- -- -- -- --
WDir 10 330 330 320 320 320 320 320 320 350 350 350 350 350
WSpd 3 6 6 10 10 10 10 10 10 8 8 8 8 8
WGst -- -- -- -- -- -- -- -- -- -- -- -- -- --
Raw TAF
KSEA 082103Z 0821/0924 33006KT P6SM VCSH SCT020 OVC030
  FM090000 32010KT P6SM BKN040
  FM090600 35008KT P6SM FEW250


Raw METAR
KSEA 082053Z 01003KT 10SM FEW014 SCT029 OVC036 17/14 A3023 RMK AO2 SLP242 60000 T01670144 51005
KSEA 081953Z 00000KT 3SM BR FEW004 SCT022 OVC029 16/14 A3023 RMK AO2 RAB10E46 SLP241 P0000 T01560139
KSEA 081927Z 27003KT 2SM -RA BR FEW004 SCT012 OVC019 15/14 A3023 RMK AO2 RAB10 P0000 T01500144
KSEA 081915Z 27005KT 1 3/4SM -RA BR FEW003 BKN012 OVC017 15/14 A3023 RMK AO2 RAB10 P0000 T01500139
KSEA 081913Z 28005KT 2SM -RA BR FEW003 SCT007 OVC012 16/14 A3023 RMK AO2 RAB10 P0000 T01560139
KSEA 081853Z 28003KT 8SM OVC009 16/14 A3022 RMK AO2 SLP240 T01560144

METAR Board
Radar Display
Forecast Discussion
For situational awareness. Not to be used for flight planning purposes.